Time;durP1;ratioP1;P1;durP2;ratioP2;P2;SDS_P1;SDS_P2;PMS_P1;PMS_P2;Temp;Humidity;BMP_temperature;BMP_pressure;BME280_temperature;BME280_humidity;BME280_pressure;Samples;Min_cycle;Max_cycle;Signal;HPM_P1;HPM_P2
2021/07/06 00:01:41;;;;;;;4.10;1.05;;;18.70;92.00;;;;;;4999545;28;20057;-74
2021/07/06 00:04:07;;;;;;;0.80;0.80;;;18.70;92.10;;;;;;5002704;28;20017;-73
2021/07/06 00:06:32;;;;;;;0.85;0.73;;;18.80;91.90;;;;;;5002505;28;20054;-73
2021/07/06 00:08:58;;;;;;;2.83;1.50;;;18.80;92.10;;;;;;5002646;28;20069;-74
2021/07/06 00:11:23;;;;;;;2.22;0.80;;;18.80;92.30;;;;;;5000742;28;20025;-74
2021/07/06 00:13:49;;;;;;;1.20;0.90;;;18.70;92.30;;;;;;5017686;28;20026;-74
2021/07/06 00:16:14;;;;;;;2.53;1.58;;;18.70;92.30;;;;;;5002995;28;20044;-73
2021/07/06 00:18:41;;;;;;;0.88;0.80;;;18.70;92.30;;;;;;5002224;28;20133;-73
2021/07/06 00:21:07;;;;;;;1.00;0.90;;;18.70;92.60;;;;;;5003266;28;20019;-74
2021/07/06 00:23:33;;;;;;;5.35;1.05;;;18.70;92.60;;;;;;5001957;28;20030;-73
2021/07/06 00:25:58;;;;;;;2.38;1.38;;;18.70;92.40;;;;;;5002606;28;20036;-73
2021/07/06 00:28:24;;;;;;;3.22;1.20;;;18.70;92.50;;;;;;5001799;28;20033;-74
2021/07/06 00:30:51;;;;;;;0.95;0.85;;;18.70;92.50;;;;;;5002713;28;20878;-73
2021/07/06 00:33:18;;;;;;;2.08;1.00;;;18.70;92.50;;;;;;5017262;28;20038;-73
2021/07/06 00:35:43;;;;;;;2.80;0.93;;;18.70;92.70;;;;;;5033741;23;20041;-69
2021/07/06 00:38:10;;;;;;;6.68;1.33;;;18.70;92.60;;;;;;5019304;28;20029;-69
2021/07/06 00:40:36;;;;;;;2.10;1.50;;;18.80;92.70;;;;;;5021296;28;20037;-69
2021/07/06 00:43:02;;;;;;;5.82;1.65;;;18.80;92.60;;;;;;5021072;28;20133;-69
2021/07/06 00:45:29;;;;;;;2.25;1.10;;;18.80;92.50;;;;;;5021667;28;20465;-69
2021/07/06 00:47:57;;;;;;;1.08;0.77;;;18.90;92.50;;;;;;5020379;28;20030;-69
2021/07/06 00:50:24;;;;;;;2.75;0.90;;;18.90;92.50;;;;;;5017219;28;20029;-69
2021/07/06 00:52:50;;;;;;;2.95;1.10;;;18.90;92.60;;;;;;5021684;28;20388;-69
2021/07/06 00:55:16;;;;;;;3.30;1.50;;;18.90;92.60;;;;;;5017453;28;20053;-69
2021/07/06 00:57:42;;;;;;;3.72;1.33;;;18.90;92.70;;;;;;5018030;28;20029;-69
2021/07/06 01:00:13;;;;;;;4.28;1.95;;;18.90;92.70;;;;;;5017428;28;20047;-69
2021/07/06 01:02:40;;;;;;;1.40;1.00;;;18.90;92.70;;;;;;5019539;28;20082;-69
2021/07/06 01:05:08;;;;;;;2.28;1.05;;;18.90;92.80;;;;;;5018684;28;20032;-69
2021/07/06 01:07:34;;;;;;;5.07;1.52;;;18.90;93.10;;;;;;5019025;28;20037;-69
2021/07/06 01:10:01;;;;;;;2.53;1.23;;;18.90;93.50;;;;;;5020001;28;20018;-69
2021/07/06 01:12:27;;;;;;;5.82;1.25;;;18.80;93.10;;;;;;5017801;28;20112;-69
2021/07/06 01:14:52;;;;;;;1.70;1.20;;;18.80;93.20;;;;;;5019007;28;20212;-69
2021/07/06 01:17:28;;;;;;;4.90;1.48;;;18.70;93.80;;;;;;5020414;28;20112;-69
2021/07/06 01:19:57;;;;;;;;;;;18.60;93.70;;;;;;5016548;28;20045;-69
2021/07/06 01:22:31;;;;;;;1.45;1.23;;;18.60;93.90;;;;;;5019611;28;19939;-69
2021/07/06 01:24:58;;;;;;;2.30;1.33;;;18.60;93.90;;;;;;5018376;28;20025;-69
2021/07/06 01:27:24;;;;;;;4.32;1.63;;;18.70;94.50;;;;;;5003370;28;20113;-69
2021/07/06 01:29:50;;;;;;;1.63;0.80;;;18.60;94.10;;;;;;5015134;28;20029;-69
2021/07/06 01:32:16;;;;;;;1.60;0.88;;;18.60;94.20;;;;;;5020863;28;20444;-69
2021/07/06 01:34:42;;;;;;;5.38;1.10;;;18.60;94.00;;;;;;5018616;28;20117;-69
2021/07/06 01:37:07;;;;;;;1.40;0.90;;;18.60;94.00;;;;;;5019979;28;20128;-69
2021/07/06 01:39:33;;;;;;;3.25;0.93;;;18.60;94.10;;;;;;5014624;28;20061;-69
2021/07/06 01:41:58;;;;;;;4.63;0.90;;;18.60;94.10;;;;;;5018954;28;20472;-69
2021/07/06 01:44:26;;;;;;;2.97;1.30;;;18.60;94.10;;;;;;5019319;28;20029;-69
2021/07/06 01:46:53;;;;;;;4.35;1.20;;;18.60;94.10;;;;;;5019239;28;20080;-69
2021/07/06 01:49:19;;;;;;;4.25;1.23;;;18.60;94.00;;;;;;5017459;28;20040;-69
2021/07/06 01:51:46;;;;;;;4.38;1.15;;;18.50;94.30;;;;;;5019440;28;20022;-69
2021/07/06 01:54:13;;;;;;;2.58;1.27;;;18.60;94.30;;;;;;5016800;28;20057;-69
2021/07/06 01:56:44;;;;;;;4.30;1.45;;;18.60;94.40;;;;;;5020190;28;20036;-69
2021/07/06 01:59:09;;;;;;;3.67;0.90;;;18.60;94.30;;;;;;5013679;28;20033;-69
2021/07/06 02:01:36;;;;;;;1.83;0.82;;;18.80;94.10;;;;;;5017621;28;20034;-69
2021/07/06 02:04:03;;;;;;;9.38;1.50;;;18.80;94.10;;;;;;5019530;28;20382;-69
2021/07/06 02:06:29;;;;;;;6.68;1.48;;;18.80;93.90;;;;;;5017301;28;20040;-69
2021/07/06 02:08:55;;;;;;;3.05;0.90;;;18.80;93.90;;;;;;5018693;28;20404;-69
2021/07/06 02:11:20;;;;;;;3.20;1.10;;;18.90;93.80;;;;;;5016045;28;20021;-69
2021/07/06 02:13:46;;;;;;;2.17;1.10;;;18.90;93.80;;;;;;5019275;28;20086;-69
2021/07/06 02:16:11;;;;;;;2.22;0.90;;;18.90;93.70;;;;;;5019069;28;20064;-69
2021/07/06 02:18:38;;;;;;;8.25;0.88;;;18.90;93.80;;;;;;5015156;28;20148;-69
2021/07/06 02:21:04;;;;;;;3.35;0.80;;;18.90;93.80;;;;;;5016342;28;20079;-69
2021/07/06 02:23:30;;;;;;;5.18;1.08;;;18.80;94.00;;;;;;5018369;28;20041;-69
2021/07/06 02:25:59;;;;;;;2.33;0.65;;;18.80;93.90;;;;;;5017538;28;20013;-69
2021/07/06 02:28:24;;;;;;;1.85;1.05;;;18.80;93.90;;;;;;5017968;28;20026;-69
2021/07/06 02:30:50;;;;;;;2.47;0.88;;;18.80;94.00;;;;;;5017937;28;20096;-69
2021/07/06 02:33:17;;;;;;;1.38;0.70;;;18.80;94.00;;;;;;5018261;28;20029;-69
2021/07/06 02:35:43;;;;;;;1.30;1.20;;;18.80;94.20;;;;;;5017986;28;20560;-69
2021/07/06 02:38:09;;;;;;;3.40;1.27;;;18.80;93.80;;;;;;5014620;28;20116;-69
2021/07/06 02:40:34;;;;;;;1.38;0.60;;;18.80;93.80;;;;;;5018691;28;20025;-69
2021/07/06 02:43:01;;;;;;;3.78;1.13;;;18.80;94.20;;;;;;5016258;28;20037;-69
2021/07/06 02:45:27;;;;;;;2.17;0.60;;;18.80;93.90;;;;;;5018581;28;20022;-69
2021/07/06 02:47:53;;;;;;;3.20;1.90;;;18.60;94.20;;;;;;5019763;28;20519;-69
2021/07/06 02:50:20;;;;;;;5.25;2.17;;;18.70;94.20;;;;;;5012880;28;20034;-69
2021/07/06 02:52:46;;;;;;;3.03;0.88;;;18.70;94.10;;;;;;5016182;28;20036;-69
2021/07/06 02:55:13;;;;;;;3.25;0.95;;;18.60;94.00;;;;;;5015841;28;20030;-69
2021/07/06 02:57:41;;;;;;;2.15;0.90;;;18.70;94.00;;;;;;5016676;28;20040;-69
2021/07/06 03:00:17;;;;;;;0.93;0.50;;;18.60;94.00;;;;;;5014803;28;20400;-69
2021/07/06 03:02:45;;;;;;;1.55;0.60;;;18.60;94.10;;;;;;5019002;28;20068;-69
2021/07/06 03:05:12;;;;;;;1.88;0.70;;;18.60;94.00;;;;;;5016313;28;20034;-69
2021/07/06 03:07:39;;;;;;;3.25;0.70;;;18.60;94.10;;;;;;5018981;28;20053;-69
2021/07/06 03:10:14;;;;;;;4.90;0.70;;;18.60;94.20;;;;;;5016628;28;20108;-69
2021/07/06 03:12:40;;;;;;;3.75;0.80;;;18.60;94.10;;;;;;5018226;28;20029;-69
2021/07/06 03:15:08;;;;;;;2.83;0.98;;;18.60;94.00;;;;;;5017607;28;20095;-69
2021/07/06 03:17:33;;;;;;;3.67;1.02;;;18.50;94.00;;;;;;5018419;28;20107;-69
2021/07/06 03:20:01;;;;;;;2.17;0.70;;;18.60;94.20;;;;;;5016386;28;20113;-69
2021/07/06 03:22:27;;;;;;;3.17;0.93;;;18.60;94.00;;;;;;5017553;28;20034;-69
2021/07/06 03:24:53;;;;;;;5.43;1.48;;;18.60;94.00;;;;;;5001881;28;20124;-69
2021/07/06 03:27:18;;;;;;;6.43;0.80;;;18.60;93.90;;;;;;5017726;28;20033;-69
2021/07/06 03:29:44;;;;;;;3.72;1.08;;;18.60;94.10;;;;;;5015100;28;20605;-69
2021/07/06 03:32:11;;;;;;;2.42;0.80;;;18.60;93.90;;;;;;5017624;28;20022;-69
2021/07/06 03:34:37;;;;;;;3.88;0.63;;;18.70;93.90;;;;;;5017567;28;20034;-69
2021/07/06 03:37:02;;;;;;;4.03;0.63;;;18.70;93.80;;;;;;5022546;28;20103;-69
2021/07/06 03:39:28;;;;;;;3.67;0.60;;;18.70;93.90;;;;;;5020151;28;20026;-69
2021/07/06 03:41:54;;;;;;;1.48;0.57;;;18.80;93.80;;;;;;5020696;28;20037;-69
2021/07/06 03:44:19;;;;;;;1.92;0.70;;;18.80;93.80;;;;;;5021373;28;20029;-69
2021/07/06 03:46:45;;;;;;;1.20;0.85;;;18.90;93.90;;;;;;5021468;28;20026;-69
2021/07/06 03:49:10;;;;;;;4.50;0.70;;;18.90;93.70;;;;;;5021844;28;20116;-69
2021/07/06 03:51:36;;;;;;;5.45;0.70;;;19.10;93.60;;;;;;5021720;28;20033;-69
2021/07/06 03:54:02;;;;;;;3.28;0.95;;;19.10;93.50;;;;;;5022922;28;20037;-69
2021/07/06 03:56:28;;;;;;;4.05;1.05;;;19.10;93.60;;;;;;5020953;28;20123;-69
2021/07/06 03:58:53;;;;;;;3.10;0.57;;;19.30;93.50;;;;;;5022178;28;20034;-69
2021/07/06 04:01:19;;;;;;;3.20;0.70;;;19.80;92.90;;;;;;5021216;28;20088;-69
2021/07/06 04:03:44;;;;;;;4.05;0.63;;;20.50;92.30;;;;;;5016336;28;20072;-69
2021/07/06 04:06:10;;;;;;;1.20;0.68;;;20.80;91.20;;;;;;5020544;28;20029;-69
2021/07/06 04:08:35;;;;;;;4.63;0.80;;;20.70;91.40;;;;;;5016533;28;20030;-77
2021/07/06 04:11:01;;;;;;;6.40;1.13;;;20.50;91.40;;;;;;5016610;28;20022;-77
2021/07/06 04:13:26;;;;;;;4.07;0.73;;;20.60;91.30;;;;;;5005623;28;20068;-76
2021/07/06 04:15:52;;;;;;;6.97;0.88;;;21.10;91.10;;;;;;5012018;28;20034;-76
2021/07/06 04:18:17;;;;;;;1.92;1.02;;;21.60;90.60;;;;;;5014927;28;20029;-77
2021/07/06 04:20:42;;;;;;;5.65;1.02;;;22.20;89.70;;;;;;5015271;28;20099;-77
2021/07/06 04:23:09;;;;;;;4.45;0.57;;;22.70;87.60;;;;;;5016973;28;20060;-77
2021/07/06 04:25:35;;;;;;;1.52;0.60;;;23.10;85.80;;;;;;5015750;28;20472;-77
2021/07/06 04:28:02;;;;;;;3.17;0.80;;;23.50;83.40;;;;;;5013887;28;20045;-76
2021/07/06 04:30:27;;;;;;;3.67;0.80;;;23.50;83.40;;;;;;5014806;28;20524;-76
2021/07/06 04:32:53;;;;;;;3.47;1.20;;;23.10;83.40;;;;;;5020962;28;20042;-76
2021/07/06 04:35:22;;;;;;;0.80;0.60;;;22.60;83.50;;;;;;5025503;28;20022;-76
2021/07/06 04:37:47;;;;;;;1.42;0.60;;;22.20;84.80;;;;;;5022001;28;20029;-76
2021/07/06 04:40:13;;;;;;;2.25;0.60;;;21.80;85.70;;;;;;5018127;28;20034;-76
2021/07/06 04:42:39;;;;;;;7.07;0.73;;;21.50;86.40;;;;;;5020094;28;20029;-75
2021/07/06 04:45:05;;;;;;;6.70;0.98;;;21.40;87.00;;;;;;5018820;28;20037;-75
2021/07/06 04:47:30;;;;;;;4.57;0.70;;;22.00;87.00;;;;;;5019933;28;20041;-75
2021/07/06 04:49:56;;;;;;;4.28;0.85;;;22.90;84.30;;;;;;5021544;28;20102;-76
2021/07/06 04:52:22;;;;;;;2.40;0.90;;;23.60;83.90;;;;;;5019479;28;20053;-76
2021/07/06 04:54:47;;;;;;;7.70;1.17;;;24.20;81.50;;;;;;5020855;28;20018;-76
2021/07/06 04:57:12;;;;;;;2.50;0.80;;;24.50;80.10;;;;;;5021724;28;20057;-76
2021/07/06 04:59:38;;;;;;;3.95;0.95;;;24.90;77.90;;;;;;5002936;28;20104;-76
2021/07/06 05:02:05;;;;;;;2.55;0.57;;;25.30;77.50;;;;;;5017832;28;20029;-75
2021/07/06 05:04:30;;;;;;;3.15;1.00;;;25.70;76.30;;;;;;5021477;28;20022;-76
2021/07/06 05:06:56;;;;;;;1.92;0.50;;;26.20;75.30;;;;;;5021594;28;20109;-76
2021/07/06 05:09:22;;;;;;;4.63;0.80;;;26.80;74.60;;;;;;5019186;28;20033;-75
2021/07/06 05:11:47;;;;;;;3.80;1.45;;;27.20;72.00;;;;;;5016397;28;20104;-72
2021/07/06 05:14:13;;;;;;;2.55;1.25;;;27.50;72.40;;;;;;5015551;28;20468;-70
2021/07/06 05:16:38;;;;;;;5.07;2.17;;;27.80;70.20;;;;;;5019022;28;20480;-70
2021/07/06 05:19:04;;;;;;;3.58;2.50;;;28.10;69.40;;;;;;5019007;28;20087;-70
2021/07/06 05:21:29;;;;;;;7.03;2.20;;;28.10;68.50;;;;;;5019717;28;20026;-70
2021/07/06 05:23:55;;;;;;;8.25;5.63;;;28.00;67.30;;;;;;5019655;28;20401;-70
2021/07/06 05:26:20;;;;;;;8.27;6.18;;;27.80;68.10;;;;;;5018347;28;20026;-70
2021/07/06 05:28:46;;;;;;;6.93;5.00;;;27.50;67.20;;;;;;5018622;28;20123;-69
2021/07/06 05:31:11;;;;;;;7.88;5.78;;;27.40;67.70;;;;;;5019669;28;20040;-70
2021/07/06 05:33:37;;;;;;;3.88;2.47;;;27.30;66.90;;;;;;5019382;28;20029;-70
2021/07/06 05:36:03;;;;;;;3.55;2.30;;;27.20;66.30;;;;;;5018890;28;20913;-70
2021/07/06 05:38:28;;;;;;;4.68;2.53;;;27.00;66.80;;;;;;5018376;28;20538;-69
2021/07/06 05:40:55;;;;;;;4.20;3.55;;;26.70;67.30;;;;;;5020262;28;20581;-69
2021/07/06 05:43:21;;;;;;;20.50;14.05;;;26.60;68.40;;;;;;5020497;28;20025;-70
2021/07/06 05:45:51;;;;;;;4.45;2.72;;;26.30;69.50;;;;;;5020357;28;20021;-69
2021/07/06 05:48:17;;;;;;;5.72;4.38;;;26.30;69.60;;;;;;5019659;28;20030;-69
2021/07/06 05:50:43;;;;;;;1.98;1.17;;;26.10;69.70;;;;;;5020545;28;20032;-69
2021/07/06 05:53:09;;;;;;;2.08;1.17;;;25.80;70.40;;;;;;5018101;28;20088;-70
2021/07/06 05:55:34;;;;;;;2.78;0.73;;;25.40;71.50;;;;;;5016225;28;20113;-70
2021/07/06 05:58:00;;;;;;;3.00;0.60;;;25.00;72.70;;;;;;5019301;28;20505;-69
2021/07/06 06:00:25;;;;;;;2.67;1.00;;;24.90;73.20;;;;;;5020206;28;20030;-70
2021/07/06 06:02:51;;;;;;;2.08;0.95;;;24.70;74.40;;;;;;5018386;28;20449;-69
2021/07/06 06:05:16;;;;;;;1.70;0.70;;;24.60;74.30;;;;;;5020028;28;20049;-70
2021/07/06 06:07:43;;;;;;;5.40;0.68;;;24.40;75.20;;;;;;5019111;28;20052;-69
2021/07/06 06:10:11;;;;;;;1.40;0.57;;;24.40;75.20;;;;;;5019266;28;20026;-70
2021/07/06 06:12:37;;;;;;;4.93;0.50;;;24.40;75.50;;;;;;5019650;28;20038;-70
2021/07/06 06:15:05;;;;;;;1.35;0.40;;;24.30;75.80;;;;;;5020147;28;20041;-70
2021/07/06 06:17:31;;;;;;;4.07;0.60;;;24.10;76.40;;;;;;5016032;28;20037;-70
2021/07/06 06:19:57;;;;;;;1.70;0.60;;;24.10;76.30;;;;;;5016579;28;20679;-70
2021/07/06 06:22:23;;;;;;;16.45;1.05;;;24.20;76.20;;;;;;5016570;28;20404;-69
2021/07/06 06:24:49;;;;;;;0.80;0.40;;;24.10;76.30;;;;;;5017289;28;20034;-70
2021/07/06 06:27:15;;;;;;;3.38;0.63;;;24.20;76.80;;;;;;5018122;28;20025;-70
2021/07/06 06:29:41;;;;;;;2.88;0.90;;;24.20;76.70;;;;;;5014422;28;20119;-70
2021/07/06 06:32:07;;;;;;;1.98;0.60;;;24.20;77.00;;;;;;5015270;28;20029;-70
2021/07/06 06:34:32;;;;;;;1.75;0.90;;;24.30;76.90;;;;;;5019394;28;20401;-70
2021/07/06 06:36:58;;;;;;;2.95;0.88;;;24.30;76.60;;;;;;5043111;22;20499;-78
2021/07/06 06:39:24;;;;;;;4.88;1.05;;;24.30;76.70;;;;;;5020302;28;20060;-79
2021/07/06 06:41:50;;;;;;;3.33;0.80;;;24.30;76.10;;;;;;5018865;28;20405;-77
2021/07/06 06:44:16;;;;;;;4.20;0.73;;;24.30;76.20;;;;;;5018657;28;20494;-77
2021/07/06 06:46:42;;;;;;;0.63;0.38;;;24.30;76.60;;;;;;5021790;28;20049;-77
2021/07/06 06:49:08;;;;;;;2.13;0.70;;;24.40;76.90;;;;;;5028357;28;20359;-77
2021/07/06 06:51:34;;;;;;;0.80;0.68;;;24.40;76.00;;;;;;5027142;28;20021;-78
2021/07/06 06:54:01;;;;;;;11.77;8.75;;;24.40;75.70;;;;;;5027804;28;20477;-78
2021/07/06 06:56:26;;;;;;;13.18;4.55;;;24.40;76.20;;;;;;5027441;28;20045;-79
2021/07/06 06:58:52;;;;;;;7.15;2.17;;;24.50;76.20;;;;;;5027987;28;20033;-78
2021/07/06 07:01:17;;;;;;;3.83;2.67;;;24.60;76.10;;;;;;5021719;28;20480;-78
2021/07/06 07:03:43;;;;;;;2.83;2.58;;;24.80;76.00;;;;;;5026866;28;20437;-80
2021/07/06 07:06:08;;;;;;;3.47;2.08;;;24.90;75.20;;;;;;5029026;28;20072;-78
2021/07/06 07:08:34;;;;;;;3.33;0.80;;;25.00;75.80;;;;;;5023267;28;20034;-78
2021/07/06 07:10:59;;;;;;;5.18;1.48;;;25.10;75.30;;;;;;5026648;28;20029;-79
2021/07/06 07:13:26;;;;;;;2.25;0.80;;;25.20;75.00;;;;;;5028485;28;20018;-79
2021/07/06 07:15:52;;;;;;;1.05;0.60;;;25.10;74.70;;;;;;5027676;28;20021;-82
2021/07/06 07:18:17;;;;;;;2.97;0.75;;;25.30;75.30;;;;;;5022866;28;20042;-80
2021/07/06 07:20:43;;;;;;;1.25;0.70;;;25.40;74.70;;;;;;5026261;28;20030;-82
2021/07/06 07:23:09;;;;;;;1.13;0.70;;;25.50;74.20;;;;;;5028367;28;20124;-81
2021/07/06 07:25:34;;;;;;;1.63;0.50;;;25.50;74.40;;;;;;5026607;28;20057;-81
2021/07/06 07:28:00;;;;;;;3.03;0.60;;;25.60;73.20;;;;;;5025742;28;20067;-77
2021/07/06 07:30:25;;;;;;;4.03;1.23;;;25.50;73.50;;;;;;5026488;28;20022;-77
2021/07/06 07:32:51;;;;;;;3.45;0.57;;;25.60;73.60;;;;;;5027427;28;20032;-77
2021/07/06 07:35:18;;;;;;;1.40;0.60;;;25.70;73.20;;;;;;5026385;28;20029;-77
2021/07/06 07:37:44;;;;;;;1.27;0.50;;;25.60;73.00;;;;;;5024621;28;20079;-77
2021/07/06 07:40:11;;;;;;;3.10;0.40;;;25.60;72.90;;;;;;5025735;28;20411;-77
2021/07/06 07:42:37;;;;;;;3.00;0.82;;;25.60;72.90;;;;;;5025885;28;20496;-77
2021/07/06 07:45:04;;;;;;;1.63;0.50;;;25.70;73.90;;;;;;5023433;28;20107;-77
2021/07/06 07:47:29;;;;;;;1.85;0.60;;;25.90;72.30;;;;;;5026261;28;20028;-77
2021/07/06 07:49:55;;;;;;;3.42;0.80;;;26.10;72.60;;;;;;5028107;28;20029;-76
2021/07/06 07:52:20;;;;;;;1.33;0.43;;;26.40;70.50;;;;;;5028347;28;20018;-75
2021/07/06 07:54:46;;;;;;;1.38;0.63;;;26.30;70.00;;;;;;5028684;28;20029;-79
2021/07/06 07:57:11;;;;;;;0.57;0.50;;;26.30;70.90;;;;;;5030899;28;20025;-77
2021/07/06 07:59:40;;;;;;;2.00;0.70;;;26.40;70.70;;;;;;5025785;28;20037;-78
2021/07/06 08:02:06;;;;;;;2.28;0.73;;;26.40;69.60;;;;;;5023937;28;20037;-78
2021/07/06 08:04:33;;;;;;;2.05;0.50;;;26.50;69.70;;;;;;5021181;28;20033;-78
2021/07/06 08:06:59;;;;;;;1.98;0.70;;;26.50;70.10;;;;;;5024602;28;20029;-78
2021/07/06 08:09:24;;;;;;;6.25;1.30;;;26.60;69.90;;;;;;5021618;28;20028;-78
2021/07/06 08:11:49;;;;;;;4.20;0.52;;;26.70;69.70;;;;;;5027749;28;20061;-77
2021/07/06 08:14:15;;;;;;;4.68;0.70;;;26.90;69.70;;;;;;5027380;28;20025;-79
2021/07/06 08:16:40;;;;;;;2.83;0.50;;;27.00;68.50;;;;;;5022200;28;20040;-78
2021/07/06 08:19:06;;;;;;;1.35;0.52;;;27.20;68.80;;;;;;5017158;28;20052;-78
2021/07/06 08:21:32;;;;;;;2.10;0.93;;;27.30;67.50;;;;;;5019470;28;20029;-77
2021/07/06 08:24:00;;;;;;;4.97;1.30;;;27.20;67.50;;;;;;5032603;28;20030;-77
2021/07/06 08:26:26;;;;;;;8.43;0.80;;;27.20;67.30;;;;;;5026730;28;20089;-77
2021/07/06 08:28:52;;;;;;;3.78;1.13;;;27.30;66.90;;;;;;5031016;28;20032;-78
2021/07/06 08:31:18;;;;;;;4.70;1.92;;;27.30;66.30;;;;;;5028621;28;20026;-77
2021/07/06 08:33:43;;;;;;;4.63;2.80;;;27.30;67.20;;;;;;5014948;28;20492;-80
2021/07/06 08:36:09;;;;;;;2.65;1.77;;;27.50;68.20;;;;;;5008252;28;20484;-80
2021/07/06 08:38:38;;;;;;;11.05;2.47;;;27.80;67.00;;;;;;5025466;28;20038;-81
2021/07/06 08:41:04;;;;;;;3.88;1.05;;;27.90;65.80;;;;;;5029872;28;20076;-81
2021/07/06 08:43:30;;;;;;;6.00;1.05;;;28.00;66.30;;;;;;5034949;28;20484;-80
2021/07/06 08:45:58;;;;;;;1.77;0.90;;;27.90;65.70;;;;;;5032173;28;20025;-80
2021/07/06 08:48:26;;;;;;;12.30;1.50;;;28.00;65.50;;;;;;5019685;28;20030;-79
2021/07/06 08:50:52;;;;;;;3.67;1.85;;;28.20;63.50;;;;;;5024669;28;20499;-81
2021/07/06 08:53:18;;;;;;;8.50;1.23;;;28.30;64.30;;;;;;5028548;28;20026;-81
2021/07/06 08:55:43;;;;;;;3.70;1.13;;;28.30;62.80;;;;;;5028369;28;20030;-79
2021/07/06 08:58:09;;;;;;;5.20;1.38;;;28.30;62.50;;;;;;5030295;28;20064;-80
2021/07/06 09:00:35;;;;;;;10.25;6.22;;;28.40;62.80;;;;;;5022873;28;20026;-81
2021/07/06 09:03:04;;;;;;;4.72;2.72;;;28.60;62.30;;;;;;5027111;28;20017;-80
2021/07/06 09:05:31;;;;;;;5.25;3.22;;;28.90;61.90;;;;;;5029015;28;20441;-78
2021/07/06 09:07:57;;;;;;;7.80;2.38;;;28.90;60.10;;;;;;5031698;28;20034;-77
2021/07/06 09:10:33;;;;;;;9.70;1.55;;;28.90;60.40;;;;;;5030559;28;20419;-78
2021/07/06 09:12:59;;;;;;;5.55;1.63;;;28.90;61.20;;;;;;5031744;28;20033;-78
2021/07/06 09:15:28;;;;;;;3.42;0.63;;;28.90;60.50;;;;;;5024647;28;20040;-79
2021/07/06 09:18:03;;;;;;;2.15;1.52;;;28.90;60.30;;;;;;5027381;28;20110;-78
2021/07/06 09:20:29;;;;;;;;;;;29.00;60.80;;;;;;5024957;28;20502;-78
2021/07/06 09:23:19;;;;;;;2.20;2.00;;;29.20;60.70;;;;;;5028246;28;19913;-79
2021/07/06 09:25:45;;;;;;;4.60;3.40;;;29.30;60.00;;;;;;5028020;28;20100;-79
2021/07/06 09:28:23;;;;;;;21.20;1.70;;;29.40;59.80;;;;;;5026275;28;20060;-79
2021/07/06 09:30:50;;;;;;;2.58;1.02;;;29.50;58.40;;;;;;5020875;28;20017;-77
2021/07/06 09:33:28;;;;;;;3.88;1.05;;;29.50;57.50;;;;;;5029282;28;20037;-78
2021/07/06 09:35:55;;;;;;;2.00;0.88;;;29.50;58.60;;;;;;5028207;28;20033;-78
2021/07/06 09:38:21;;;;;;;5.90;0.60;;;29.70;57.30;;;;;;5032930;28;20033;-77
2021/07/06 09:40:49;;;;;;;7.43;1.23;;;29.70;56.70;;;;;;5030279;28;20037;-78
2021/07/06 09:43:18;;;;;;;3.25;0.77;;;29.70;57.40;;;;;;5027094;28;20026;-76
2021/07/06 09:45:48;;;;;;;1.58;0.60;;;29.50;58.20;;;;;;5030001;28;20022;-77
2021/07/06 09:48:14;;;;;;;2.28;0.50;;;29.50;58.70;;;;;;5018873;28;20497;-80
2021/07/06 09:50:39;;;;;;;3.40;0.77;;;29.40;58.90;;;;;;5026729;28;20064;-79
2021/07/06 09:53:26;;;;;;;4.60;0.70;;;29.40;59.00;;;;;;5030874;28;20052;-80
2021/07/06 09:55:51;;;;;;;6.68;1.17;;;29.30;58.60;;;;;;5028114;28;20061;-79
2021/07/06 09:58:17;;;;;;;2.45;0.95;;;29.20;59.20;;;;;;5023770;28;20061;-80
2021/07/06 10:00:42;;;;;;;2.92;0.68;;;29.20;58.80;;;;;;5028968;28;20195;-80
2021/07/06 10:03:09;;;;;;;2.92;0.95;;;29.10;59.40;;;;;;5029132;28;20036;-79
2021/07/06 10:05:35;;;;;;;1.80;0.50;;;29.10;60.10;;;;;;5025713;28;20025;-77
2021/07/06 10:08:01;;;;;;;0.90;0.60;;;29.10;59.70;;;;;;5025223;28;20048;-79
2021/07/06 10:10:27;;;;;;;1.42;0.60;;;29.10;59.70;;;;;;5029246;28;20027;-78
2021/07/06 10:12:55;;;;;;;3.05;0.50;;;29.00;59.40;;;;;;5023485;28;20022;-78
2021/07/06 10:15:22;;;;;;;6.95;0.80;;;29.00;59.70;;;;;;5030341;28;20033;-78
2021/07/06 10:17:49;;;;;;;3.03;0.60;;;29.10;60.70;;;;;;5023623;28;20034;-79
2021/07/06 10:20:21;;;;;;;3.83;0.82;;;29.20;59.50;;;;;;5018287;28;20022;-79
2021/07/06 10:22:48;;;;;;;3.42;1.23;;;29.10;60.00;;;;;;5005257;28;20017;-79
2021/07/06 10:25:13;;;;;;;2.03;0.77;;;29.20;60.50;;;;;;5012440;28;20030;-79
2021/07/06 10:27:48;;;;;;;3.45;0.98;;;29.20;59.70;;;;;;5012380;28;20080;-78
2021/07/06 10:30:16;;;;;;;3.03;0.60;;;29.20;59.40;;;;;;5027988;28;20040;-79
2021/07/06 10:32:43;;;;;;;3.05;0.70;;;29.00;60.00;;;;;;5031773;28;20268;-79
2021/07/06 10:35:11;;;;;;;7.20;0.70;;;28.90;59.90;;;;;;5011917;28;20026;-78
2021/07/06 10:37:37;;;;;;;5.72;0.98;;;28.80;60.20;;;;;;5030970;28;20029;-79
2021/07/06 10:40:17;;;;;;;3.92;0.63;;;28.70;60.70;;;;;;5023932;28;20059;-79
2021/07/06 10:42:43;;;;;;;1.95;0.60;;;28.50;61.10;;;;;;5028711;28;20080;-78
2021/07/06 10:45:12;;;;;;;2.75;0.80;;;28.40;61.60;;;;;;5029179;28;20033;-79
2021/07/06 10:47:39;;;;;;;2.08;0.65;;;28.30;61.50;;;;;;5001707;28;20029;-78
2021/07/06 10:50:23;;;;;;;5.35;1.05;;;28.10;62.40;;;;;;5027913;28;20116;-77
2021/07/06 10:52:48;;;;;;;1.75;0.75;;;27.90;62.60;;;;;;5029366;28;20029;-80
2021/07/06 10:55:33;;;;;;;6.30;0.85;;;27.70;62.90;;;;;;5027763;28;20447;-80
2021/07/06 10:57:59;;;;;;;4.53;1.13;;;27.60;63.40;;;;;;5029115;28;20496;-79
2021/07/06 11:00:44;;;;;;;2.25;0.85;;;27.40;64.10;;;;;;5025303;28;20030;-80
2021/07/06 11:03:20;;;;;;;1.35;0.70;;;27.10;64.60;;;;;;5028599;28;20267;-80
2021/07/06 11:05:47;;;;;;;3.20;1.15;;;26.90;65.70;;;;;;5030928;28;20440;-78
2021/07/06 11:08:41;;;;;;;6.55;1.20;;;26.70;66.20;;;;;;5027894;28;20018;-78
2021/07/06 11:11:07;;;;;;;3.88;0.95;;;26.60;67.70;;;;;;5030773;28;20480;-79
2021/07/06 11:13:33;;;;;;;9.35;1.23;;;26.50;70.40;;;;;;5029323;28;20025;-78
2021/07/06 11:16:01;;;;;;;5.05;1.25;;;26.40;72.10;;;;;;5029671;28;20041;-81
2021/07/06 11:18:34;;;;;;;3.05;1.42;;;26.20;72.30;;;;;;5027896;28;20210;-80
2021/07/06 11:21:00;;;;;;;7.60;1.30;;;25.90;75.00;;;;;;5028296;28;20083;-81
2021/07/06 11:23:34;;;;;;;8.18;2.13;;;25.60;76.40;;;;;;5030772;28;20025;-83
2021/07/06 11:26:02;;;;;;;3.53;0.93;;;25.20;79.40;;;;;;5010423;28;20018;-81
2021/07/06 11:28:28;;;;;;;8.30;0.90;;;24.80;81.70;;;;;;5025925;28;20096;-79
2021/07/06 11:30:59;;;;;;;4.85;1.00;;;24.40;82.40;;;;;;5027768;28;20454;-78
2021/07/06 11:33:31;;;;;;;3.53;1.10;;;24.10;85.70;;;;;;5029258;28;20558;-79
2021/07/06 11:35:57;;;;;;;7.82;0.98;;;23.80;86.90;;;;;;5026757;28;20033;-78
2021/07/06 11:38:24;;;;;;;7.63;1.95;;;23.70;88.80;;;;;;5026961;28;20037;-78
2021/07/06 11:40:58;;;;;;;5.05;1.50;;;23.50;89.30;;;;;;5019187;28;20108;-79
2021/07/06 11:43:26;;;;;;;5.07;2.08;;;23.20;90.90;;;;;;5018634;28;20500;-79
2021/07/06 11:46:00;;;;;;;9.05;2.47;;;23.00;91.00;;;;;;5029124;28;20119;-79
2021/07/06 11:48:28;;;;;;;5.32;2.50;;;22.90;92.20;;;;;;5027541;28;20768;-78
2021/07/06 11:50:55;;;;;;;5.35;1.80;;;22.80;92.00;;;;;;5028882;28;20045;-78
2021/07/06 11:53:26;;;;;;;2.83;1.40;;;22.60;92.20;;;;;;5026336;28;20057;-80
2021/07/06 11:55:52;;;;;;;2.40;1.55;;;22.50;92.00;;;;;;5038869;28;20410;-81
2021/07/06 11:58:23;;;;;;;4.15;1.13;;;22.30;92.50;;;;;;5031796;28;20378;-81
2021/07/06 12:00:49;;;;;;;2.35;1.05;;;22.30;92.60;;;;;;5034166;28;20036;-79
2021/07/06 12:03:24;;;;;;;3.33;1.58;;;22.20;92.70;;;;;;5033146;28;20515;-81
2021/07/06 12:05:57;;;;;;;3.80;1.65;;;22.20;92.10;;;;;;5034693;28;20033;-81
2021/07/06 12:08:25;;;;;;;3.53;1.63;;;22.20;93.20;;;;;;5025142;28;20040;-79
2021/07/06 12:11:07;;;;;;;3.45;1.20;;;22.20;93.30;;;;;;5029039;28;20075;-78
2021/07/06 12:13:34;;;;;;;4.38;1.58;;;22.20;93.40;;;;;;5028243;28;20036;-79
2021/07/06 12:16:02;;;;;;;5.05;3.53;;;22.10;92.80;;;;;;5030786;28;20400;-81
2021/07/06 12:18:29;;;;;;;4.22;2.00;;;22.10;92.60;;;;;;5028373;28;20057;-80
2021/07/06 12:21:01;;;;;;;8.60;3.85;;;22.10;93.20;;;;;;5027198;28;20028;-81
2021/07/06 12:23:27;;;;;;;12.25;7.30;;;22.10;92.90;;;;;;5030659;28;20026;-81
2021/07/06 12:25:55;;;;;;;7.57;3.55;;;21.90;93.10;;;;;;5033308;28;20018;-81
2021/07/06 12:28:22;;;;;;;8.45;3.67;;;21.80;93.70;;;;;;5027922;28;20018;-81
2021/07/06 12:31:15;;;;;;;4.68;2.42;;;21.50;93.90;;;;;;5029718;28;20083;-80
2021/07/06 12:33:42;;;;;;;6.00;1.63;;;21.40;94.30;;;;;;5035098;28;20053;-81
2021/07/06 12:36:08;;;;;;;4.45;2.17;;;21.30;94.80;;;;;;5033939;28;20029;-74
2021/07/06 12:38:33;;;;;;;17.10;10.48;;;21.20;95.20;;;;;;5026214;28;20426;-74
2021/07/06 12:40:59;;;;;;;17.58;13.00;;;21.20;95.80;;;;;;5030431;28;20021;-73
2021/07/06 12:43:24;;;;;;;10.63;5.70;;;21.20;96.40;;;;;;5028156;28;20083;-73
2021/07/06 12:45:50;;;;;;;3.50;1.48;;;21.10;96.40;;;;;;5030853;28;20444;-75
2021/07/06 12:48:29;;;;;;;10.15;5.20;;;21.10;96.40;;;;;;5029815;28;20041;-72